sensor_id;sensor_type;location;lat;lon;timestamp;P1;durP1;ratioP1;P2;durP2;ratioP2
43682;SDS011;29285;52.128;21.060;2023-06-19T00:00:19;9.00;;;8.20;;
43682;SDS011;29285;52.128;21.060;2023-06-19T00:05:40;9.40;;;8.10;;
43682;SDS011;29285;52.128;21.060;2023-06-19T00:10:41;8.90;;;8.10;;
43682;SDS011;29285;52.128;21.060;2023-06-19T00:15:42;9.50;;;7.90;;
43682;SDS011;29285;52.128;21.060;2023-06-19T00:20:44;8.90;;;8.00;;
43682;SDS011;29285;52.128;21.060;2023-06-19T00:25:46;8.20;;;7.40;;
43682;SDS011;29285;52.128;21.060;2023-06-19T00:30:48;9.40;;;7.80;;
43682;SDS011;29285;52.128;21.060;2023-06-19T00:35:51;12.10;;;7.80;;
43682;SDS011;29285;52.128;21.060;2023-06-19T00:40:52;8.80;;;8.00;;
43682;SDS011;29285;52.128;21.060;2023-06-19T00:45:53;8.40;;;7.70;;
43682;SDS011;29285;52.128;21.060;2023-06-19T00:50:57;9.10;;;8.20;;
43682;SDS011;29285;52.128;21.060;2023-06-19T00:55:58;9.80;;;7.10;;
43682;SDS011;29285;52.128;21.060;2023-06-19T01:00:59;8.70;;;7.80;;
43682;SDS011;29285;52.128;21.060;2023-06-19T01:06:00;8.00;;;7.30;;
43682;SDS011;29285;52.128;21.060;2023-06-19T01:11:03;8.60;;;7.70;;
43682;SDS011;29285;52.128;21.060;2023-06-19T01:16:05;10.00;;;8.00;;
43682;SDS011;29285;52.128;21.060;2023-06-19T01:21:11;8.00;;;7.20;;
43682;SDS011;29285;52.128;21.060;2023-06-19T01:26:15;10.00;;;7.50;;
43682;SDS011;29285;52.128;21.060;2023-06-19T01:31:25;8.80;;;7.20;;
43682;SDS011;29285;52.128;21.060;2023-06-19T01:36:34;8.10;;;7.30;;
43682;SDS011;29285;52.128;21.060;2023-06-19T01:41:36;7.30;;;6.50;;
43682;SDS011;29285;52.128;21.060;2023-06-19T01:46:39;7.90;;;7.20;;
43682;SDS011;29285;52.128;21.060;2023-06-19T01:51:40;7.80;;;7.20;;
43682;SDS011;29285;52.128;21.060;2023-06-19T01:56:40;7.90;;;7.00;;
43682;SDS011;29285;52.128;21.060;2023-06-19T05:53:25;9.50;;;8.60;;
43682;SDS011;29285;52.128;21.060;2023-06-19T05:58:26;10.50;;;9.50;;
43682;SDS011;29285;52.128;21.060;2023-06-19T06:03:27;9.40;;;8.60;;
43682;SDS011;29285;52.128;21.060;2023-06-19T06:08:31;10.00;;;9.10;;
43682;SDS011;29285;52.128;21.060;2023-06-19T06:13:32;8.70;;;8.00;;
43682;SDS011;29285;52.128;21.060;2023-06-19T06:18:33;10.90;;;10.00;;
43682;SDS011;29285;52.128;21.060;2023-06-19T06:23:34;11.80;;;10.00;;
43682;SDS011;29285;52.128;21.060;2023-06-19T06:28:35;10.00;;;8.50;;
43682;SDS011;29285;52.128;21.060;2023-06-19T06:33:36;8.30;;;7.60;;
43682;SDS011;29285;52.128;21.060;2023-06-19T06:38:37;8.30;;;7.70;;
43682;SDS011;29285;52.128;21.060;2023-06-19T06:43:40;8.90;;;8.10;;
43682;SDS011;29285;52.128;21.060;2023-06-19T06:48:43;8.50;;;7.80;;
43682;SDS011;29285;52.128;21.060;2023-06-19T06:53:44;8.50;;;7.70;;
43682;SDS011;29285;52.128;21.060;2023-06-19T06:58:45;8.30;;;7.60;;
43682;SDS011;29285;52.128;21.060;2023-06-19T07:03:47;9.30;;;8.50;;
43682;SDS011;29285;52.128;21.060;2023-06-19T07:08:48;9.50;;;8.70;;
43682;SDS011;29285;52.128;21.060;2023-06-19T07:13:49;9.10;;;8.20;;
43682;SDS011;29285;52.128;21.060;2023-06-19T07:18:50;14.40;;;8.40;;
43682;SDS011;29285;52.128;21.060;2023-06-19T07:23:51;8.60;;;7.90;;
43682;SDS011;29285;52.128;21.060;2023-06-19T07:28:52;8.50;;;7.70;;
43682;SDS011;29285;52.128;21.060;2023-06-19T07:33:53;9.20;;;8.00;;
43682;SDS011;29285;52.128;21.060;2023-06-19T07:38:57;12.60;;;7.50;;
43682;SDS011;29285;52.128;21.060;2023-06-19T07:43:59;8.10;;;7.50;;
43682;SDS011;29285;52.128;21.060;2023-06-19T07:49:00;8.70;;;7.80;;
43682;SDS011;29285;52.128;21.060;2023-06-19T07:54:01;8.30;;;7.60;;
43682;SDS011;29285;52.128;21.060;2023-06-19T07:59:02;8.70;;;7.80;;
43682;SDS011;29285;52.128;21.060;2023-06-19T08:04:03;8.40;;;7.50;;
43682;SDS011;29285;52.128;21.060;2023-06-19T08:09:04;8.30;;;7.60;;
43682;SDS011;29285;52.128;21.060;2023-06-19T08:14:05;8.90;;;8.00;;
43682;SDS011;29285;52.128;21.060;2023-06-19T08:19:06;9.30;;;8.50;;
43682;SDS011;29285;52.128;21.060;2023-06-19T08:24:07;7.80;;;7.20;;
43682;SDS011;29285;52.128;21.060;2023-06-19T08:29:08;9.10;;;8.30;;
43682;SDS011;29285;52.128;21.060;2023-06-19T08:34:09;8.60;;;7.80;;
43682;SDS011;29285;52.128;21.060;2023-06-19T08:39:10;9.30;;;8.50;;
43682;SDS011;29285;52.128;21.060;2023-06-19T08:44:11;8.60;;;7.80;;
43682;SDS011;29285;52.128;21.060;2023-06-19T08:49:12;8.60;;;7.80;;
43682;SDS011;29285;52.128;21.060;2023-06-19T08:54:13;9.20;;;8.30;;
43682;SDS011;29285;52.128;21.060;2023-06-19T08:59:15;8.60;;;7.80;;
43682;SDS011;29285;52.128;21.060;2023-06-19T09:09:20;14.90;;;6.80;;
43682;SDS011;29285;52.128;21.060;2023-06-19T09:14:30;7.10;;;6.50;;
43682;SDS011;29285;52.128;21.060;2023-06-19T09:19:51;8.20;;;5.70;;
43682;SDS011;29285;52.128;21.060;2023-06-19T09:24:53;6.90;;;6.20;;
43682;SDS011;29285;52.128;21.060;2023-06-19T09:30:00;4.90;;;4.50;;
43682;SDS011;29285;52.128;21.060;2023-06-19T09:35:01;5.80;;;5.20;;
43682;SDS011;29285;52.128;21.060;2023-06-19T09:40:03;5.60;;;5.10;;
43682;SDS011;29285;52.128;21.060;2023-06-19T09:45:11;6.60;;;6.10;;
43682;SDS011;29285;52.128;21.060;2023-06-19T09:50:16;6.10;;;5.60;;
43682;SDS011;29285;52.128;21.060;2023-06-19T09:55:17;6.40;;;5.90;;
43682;SDS011;29285;52.128;21.060;2023-06-19T10:00:20;7.30;;;6.70;;
43682;SDS011;29285;52.128;21.060;2023-06-19T10:05:29;6.10;;;5.60;;
43682;SDS011;29285;52.128;21.060;2023-06-19T10:10:31;6.40;;;5.80;;
43682;SDS011;29285;52.128;21.060;2023-06-19T10:15:34;6.00;;;5.50;;
43682;SDS011;29285;52.128;21.060;2023-06-19T10:20:43;5.90;;;5.40;;
43682;SDS011;29285;52.128;21.060;2023-06-19T10:25:45;5.80;;;5.40;;
43682;SDS011;29285;52.128;21.060;2023-06-19T10:31:07;15.00;;;5.30;;
43682;SDS011;29285;52.128;21.060;2023-06-19T10:36:13;5.60;;;5.10;;
43682;SDS011;29285;52.128;21.060;2023-06-19T10:41:16;5.70;;;5.00;;
43682;SDS011;29285;52.128;21.060;2023-06-19T10:46:17;5.90;;;5.40;;
43682;SDS011;29285;52.128;21.060;2023-06-19T10:51:19;5.60;;;5.20;;
43682;SDS011;29285;52.128;21.060;2023-06-19T10:56:20;6.10;;;5.70;;
43682;SDS011;29285;52.128;21.060;2023-06-19T11:06:52;6.00;;;5.40;;
43682;SDS011;29285;52.128;21.060;2023-06-19T11:11:54;5.90;;;5.30;;
43682;SDS011;29285;52.128;21.060;2023-06-19T11:16:55;5.60;;;5.10;;
43682;SDS011;29285;52.128;21.060;2023-06-19T11:21:57;5.90;;;5.40;;
43682;SDS011;29285;52.128;21.060;2023-06-19T11:26:58;5.50;;;5.10;;
43682;SDS011;29285;52.128;21.060;2023-06-19T11:32:06;6.40;;;5.80;;
43682;SDS011;29285;52.128;21.060;2023-06-19T11:37:15;6.00;;;5.50;;
43682;SDS011;29285;52.128;21.060;2023-06-19T11:42:16;6.20;;;5.70;;
43682;SDS011;29285;52.128;21.060;2023-06-19T11:47:18;5.50;;;5.00;;
43682;SDS011;29285;52.128;21.060;2023-06-19T11:52:19;6.00;;;5.50;;
43682;SDS011;29285;52.128;21.060;2023-06-19T11:57:20;8.20;;;6.40;;
43682;SDS011;29285;52.128;21.060;2023-06-19T12:02:21;5.50;;;5.10;;
43682;SDS011;29285;52.128;21.060;2023-06-19T12:07:22;5.40;;;5.00;;
43682;SDS011;29285;52.128;21.060;2023-06-19T12:12:23;5.40;;;5.00;;
43682;SDS011;29285;52.128;21.060;2023-06-19T12:17:26;5.50;;;5.00;;
43682;SDS011;29285;52.128;21.060;2023-06-19T12:22:27;6.70;;;6.00;;
43682;SDS011;29285;52.128;21.060;2023-06-19T12:27:29;5.10;;;4.80;;
43682;SDS011;29285;52.128;21.060;2023-06-19T12:32:29;5.50;;;4.70;;
43682;SDS011;29285;52.128;21.060;2023-06-19T12:37:31;5.60;;;5.10;;
43682;SDS011;29285;52.128;21.060;2023-06-19T12:42:32;5.70;;;5.20;;
43682;SDS011;29285;52.128;21.060;2023-06-19T12:47:33;5.70;;;5.30;;
43682;SDS011;29285;52.128;21.060;2023-06-19T12:52:34;6.40;;;5.50;;
43682;SDS011;29285;52.128;21.060;2023-06-19T12:57:35;6.00;;;5.40;;
43682;SDS011;29285;52.128;21.060;2023-06-19T13:02:36;6.70;;;4.80;;
43682;SDS011;29285;52.128;21.060;2023-06-19T13:07:38;5.70;;;5.20;;
43682;SDS011;29285;52.128;21.060;2023-06-19T13:12:39;6.30;;;5.70;;
43682;SDS011;29285;52.128;21.060;2023-06-19T13:17:39;5.20;;;4.80;;
43682;SDS011;29285;52.128;21.060;2023-06-19T13:22:41;5.60;;;4.50;;
43682;SDS011;29285;52.128;21.060;2023-06-19T13:27:42;5.70;;;4.90;;
43682;SDS011;29285;52.128;21.060;2023-06-19T13:32:42;5.10;;;4.60;;
43682;SDS011;29285;52.128;21.060;2023-06-19T13:37:43;5.10;;;4.70;;
43682;SDS011;29285;52.128;21.060;2023-06-19T13:42:44;5.40;;;4.70;;
43682;SDS011;29285;52.128;21.060;2023-06-19T13:47:45;5.20;;;4.70;;
43682;SDS011;29285;52.128;21.060;2023-06-19T13:52:46;5.10;;;4.60;;
43682;SDS011;29285;52.128;21.060;2023-06-19T13:57:47;5.10;;;4.70;;
43682;SDS011;29285;52.128;21.060;2023-06-19T14:02:48;4.80;;;4.40;;
43682;SDS011;29285;52.128;21.060;2023-06-19T14:07:50;5.70;;;5.30;;
43682;SDS011;29285;52.128;21.060;2023-06-19T14:12:52;6.10;;;4.10;;
43682;SDS011;29285;52.128;21.060;2023-06-19T14:17:53;5.40;;;4.70;;
43682;SDS011;29285;52.128;21.060;2023-06-19T14:22:54;9.30;;;5.20;;
43682;SDS011;29285;52.128;21.060;2023-06-19T14:27:55;9.70;;;4.50;;
43682;SDS011;29285;52.128;21.060;2023-06-19T14:32:56;4.60;;;4.20;;
43682;SDS011;29285;52.128;21.060;2023-06-19T14:37:57;4.60;;;4.30;;
43682;SDS011;29285;52.128;21.060;2023-06-19T14:42:58;5.20;;;4.80;;
43682;SDS011;29285;52.128;21.060;2023-06-19T14:47:59;6.10;;;4.90;;
43682;SDS011;29285;52.128;21.060;2023-06-19T14:53:00;5.10;;;4.70;;
43682;SDS011;29285;52.128;21.060;2023-06-19T14:58:01;4.60;;;4.30;;
43682;SDS011;29285;52.128;21.060;2023-06-19T15:03:02;4.50;;;4.10;;
43682;SDS011;29285;52.128;21.060;2023-06-19T15:08:03;5.90;;;4.60;;
43682;SDS011;29285;52.128;21.060;2023-06-19T15:13:05;4.60;;;4.30;;
43682;SDS011;29285;52.128;21.060;2023-06-19T15:18:06;4.60;;;4.30;;
43682;SDS011;29285;52.128;21.060;2023-06-19T15:23:07;4.40;;;4.10;;
43682;SDS011;29285;52.128;21.060;2023-06-19T15:28:08;5.00;;;4.50;;
43682;SDS011;29285;52.128;21.060;2023-06-19T15:33:09;4.80;;;4.40;;
43682;SDS011;29285;52.128;21.060;2023-06-19T15:38:10;4.60;;;4.30;;
43682;SDS011;29285;52.128;21.060;2023-06-19T15:43:12;4.40;;;4.00;;
43682;SDS011;29285;52.128;21.060;2023-06-19T15:48:13;4.30;;;4.00;;
43682;SDS011;29285;52.128;21.060;2023-06-19T15:53:14;4.00;;;3.60;;
43682;SDS011;29285;52.128;21.060;2023-06-19T15:58:15;4.10;;;3.80;;
43682;SDS011;29285;52.128;21.060;2023-06-19T16:03:16;4.70;;;4.30;;
43682;SDS011;29285;52.128;21.060;2023-06-19T16:08:17;5.20;;;4.70;;
43682;SDS011;29285;52.128;21.060;2023-06-19T16:13:19;5.40;;;4.80;;
43682;SDS011;29285;52.128;21.060;2023-06-19T16:18:20;5.50;;;4.50;;
43682;SDS011;29285;52.128;21.060;2023-06-19T16:23:21;4.40;;;4.00;;
43682;SDS011;29285;52.128;21.060;2023-06-19T16:28:22;4.60;;;4.20;;
43682;SDS011;29285;52.128;21.060;2023-06-19T16:33:23;3.90;;;3.60;;
43682;SDS011;29285;52.128;21.060;2023-06-19T16:38:24;4.30;;;4.00;;
43682;SDS011;29285;52.128;21.060;2023-06-19T16:43:25;4.30;;;3.90;;
43682;SDS011;29285;52.128;21.060;2023-06-19T16:48:26;4.40;;;4.10;;
43682;SDS011;29285;52.128;21.060;2023-06-19T16:53:27;5.10;;;4.50;;
43682;SDS011;29285;52.128;21.060;2023-06-19T16:58:28;6.10;;;4.50;;
43682;SDS011;29285;52.128;21.060;2023-06-19T17:03:29;4.70;;;4.20;;
43682;SDS011;29285;52.128;21.060;2023-06-19T17:08:31;4.50;;;4.20;;
43682;SDS011;29285;52.128;21.060;2023-06-19T17:13:32;4.70;;;4.30;;
43682;SDS011;29285;52.128;21.060;2023-06-19T17:18:33;4.80;;;4.40;;
43682;SDS011;29285;52.128;21.060;2023-06-19T17:23:37;5.00;;;4.40;;
43682;SDS011;29285;52.128;21.060;2023-06-19T17:28:38;5.10;;;4.60;;
43682;SDS011;29285;52.128;21.060;2023-06-19T17:33:39;6.40;;;5.10;;
43682;SDS011;29285;52.128;21.060;2023-06-19T17:38:40;5.40;;;4.90;;
43682;SDS011;29285;52.128;21.060;2023-06-19T17:43:41;5.20;;;4.70;;
43682;SDS011;29285;52.128;21.060;2023-06-19T17:48:42;5.50;;;5.10;;
43682;SDS011;29285;52.128;21.060;2023-06-19T17:53:43;6.20;;;5.60;;
43682;SDS011;29285;52.128;21.060;2023-06-19T17:58:44;6.00;;;5.30;;
43682;SDS011;29285;52.128;21.060;2023-06-19T18:03:45;9.50;;;8.70;;
43682;SDS011;29285;52.128;21.060;2023-06-19T18:08:47;6.50;;;5.60;;
43682;SDS011;29285;52.128;21.060;2023-06-19T18:13:48;6.00;;;5.40;;
43682;SDS011;29285;52.128;21.060;2023-06-19T18:18:49;6.50;;;5.80;;
43682;SDS011;29285;52.128;21.060;2023-06-19T18:23:50;8.50;;;6.00;;
43682;SDS011;29285;52.128;21.060;2023-06-19T18:28:51;8.10;;;6.10;;
43682;SDS011;29285;52.128;21.060;2023-06-19T18:33:53;7.70;;;6.30;;
43682;SDS011;29285;52.128;21.060;2023-06-19T18:38:55;8.00;;;7.00;;
43682;SDS011;29285;52.128;21.060;2023-06-19T18:43:56;7.70;;;6.90;;
43682;SDS011;29285;52.128;21.060;2023-06-19T18:48:57;10.50;;;6.80;;
43682;SDS011;29285;52.128;21.060;2023-06-19T18:53:58;7.40;;;6.60;;
43682;SDS011;29285;52.128;21.060;2023-06-19T18:58:59;7.20;;;6.60;;
43682;SDS011;29285;52.128;21.060;2023-06-19T19:04:00;6.80;;;6.20;;
43682;SDS011;29285;52.128;21.060;2023-06-19T19:09:01;6.90;;;6.30;;
43682;SDS011;29285;52.128;21.060;2023-06-19T19:14:02;8.90;;;7.20;;
43682;SDS011;29285;52.128;21.060;2023-06-19T19:19:04;7.70;;;6.90;;
43682;SDS011;29285;52.128;21.060;2023-06-19T19:24:05;7.50;;;6.90;;
43682;SDS011;29285;52.128;21.060;2023-06-19T19:29:06;7.90;;;7.30;;
43682;SDS011;29285;52.128;21.060;2023-06-19T19:34:07;7.90;;;7.20;;
43682;SDS011;29285;52.128;21.060;2023-06-19T19:39:08;8.60;;;7.80;;
43682;SDS011;29285;52.128;21.060;2023-06-19T19:44:09;7.80;;;7.00;;
43682;SDS011;29285;52.128;21.060;2023-06-19T19:49:10;8.60;;;7.80;;
43682;SDS011;29285;52.128;21.060;2023-06-19T19:54:11;9.50;;;7.70;;
43682;SDS011;29285;52.128;21.060;2023-06-19T19:59:12;9.40;;;8.40;;
43682;SDS011;29285;52.128;21.060;2023-06-19T20:04:13;8.20;;;7.20;;
43682;SDS011;29285;52.128;21.060;2023-06-19T20:09:14;9.60;;;8.80;;
43682;SDS011;29285;52.128;21.060;2023-06-19T20:14:15;8.50;;;7.70;;
43682;SDS011;29285;52.128;21.060;2023-06-19T20:19:16;10.10;;;8.10;;
43682;SDS011;29285;52.128;21.060;2023-06-19T20:24:17;10.10;;;9.30;;
43682;SDS011;29285;52.128;21.060;2023-06-19T20:29:18;9.90;;;8.60;;
43682;SDS011;29285;52.128;21.060;2023-06-19T20:34:19;9.50;;;8.60;;
43682;SDS011;29285;52.128;21.060;2023-06-19T20:39:20;10.70;;;8.40;;
43682;SDS011;29285;52.128;21.060;2023-06-19T20:44:22;8.60;;;8.00;;
43682;SDS011;29285;52.128;21.060;2023-06-19T20:49:25;9.20;;;8.40;;
43682;SDS011;29285;52.128;21.060;2023-06-19T20:54:26;11.00;;;9.10;;
43682;SDS011;29285;52.128;21.060;2023-06-19T20:59:27;8.90;;;8.10;;
43682;SDS011;29285;52.128;21.060;2023-06-19T21:04:28;11.10;;;8.60;;
43682;SDS011;29285;52.128;21.060;2023-06-19T21:09:30;9.50;;;8.80;;
43682;SDS011;29285;52.128;21.060;2023-06-19T21:14:31;9.70;;;8.80;;
43682;SDS011;29285;52.128;21.060;2023-06-19T21:19:33;10.80;;;9.70;;
43682;SDS011;29285;52.128;21.060;2023-06-19T21:24:34;11.70;;;10.50;;
43682;SDS011;29285;52.128;21.060;2023-06-19T21:29:35;10.10;;;9.20;;
43682;SDS011;29285;52.128;21.060;2023-06-19T21:34:37;10.90;;;9.80;;
43682;SDS011;29285;52.128;21.060;2023-06-19T21:39:38;11.20;;;10.10;;
43682;SDS011;29285;52.128;21.060;2023-06-19T21:44:39;10.70;;;9.70;;
43682;SDS011;29285;52.128;21.060;2023-06-19T21:49:40;11.50;;;10.30;;
43682;SDS011;29285;52.128;21.060;2023-06-19T21:54:41;12.40;;;11.10;;
43682;SDS011;29285;52.128;21.060;2023-06-19T21:59:42;11.90;;;10.80;;
43682;SDS011;29285;52.128;21.060;2023-06-19T22:04:43;13.10;;;11.90;;
43682;SDS011;29285;52.128;21.060;2023-06-19T22:09:44;13.20;;;11.90;;
43682;SDS011;29285;52.128;21.060;2023-06-19T22:14:45;12.00;;;11.00;;
43682;SDS011;29285;52.128;21.060;2023-06-19T22:19:46;12.40;;;11.30;;
43682;SDS011;29285;52.128;21.060;2023-06-19T22:24:48;11.90;;;10.90;;
43682;SDS011;29285;52.128;21.060;2023-06-19T22:29:49;12.70;;;11.60;;
43682;SDS011;29285;52.128;21.060;2023-06-19T22:34:50;13.70;;;12.20;;
43682;SDS011;29285;52.128;21.060;2023-06-19T22:39:51;13.00;;;11.90;;
43682;SDS011;29285;52.128;21.060;2023-06-19T22:44:52;13.30;;;12.20;;
43682;SDS011;29285;52.128;21.060;2023-06-19T22:49:53;14.60;;;13.10;;
43682;SDS011;29285;52.128;21.060;2023-06-19T22:54:54;14.10;;;12.60;;
43682;SDS011;29285;52.128;21.060;2023-06-19T22:59:55;13.40;;;12.00;;
43682;SDS011;29285;52.128;21.060;2023-06-19T23:04:57;14.60;;;13.00;;
43682;SDS011;29285;52.128;21.060;2023-06-19T23:09:58;14.20;;;12.80;;
43682;SDS011;29285;52.128;21.060;2023-06-19T23:14:59;14.50;;;13.10;;
43682;SDS011;29285;52.128;21.060;2023-06-19T23:20:01;16.30;;;12.70;;
43682;SDS011;29285;52.128;21.060;2023-06-19T23:25:02;14.60;;;13.20;;
43682;SDS011;29285;52.128;21.060;2023-06-19T23:30:03;14.30;;;13.00;;
43682;SDS011;29285;52.128;21.060;2023-06-19T23:35:05;15.50;;;14.00;;
43682;SDS011;29285;52.128;21.060;2023-06-19T23:40:06;15.00;;;13.20;;
43682;SDS011;29285;52.128;21.060;2023-06-19T23:45:11;16.00;;;14.60;;
43682;SDS011;29285;52.128;21.060;2023-06-19T23:50:12;14.00;;;12.80;;
43682;SDS011;29285;52.128;21.060;2023-06-19T23:55:13;15.10;;;13.70;;
